sensor_id;sensor_type;location;lat;lon;timestamp;P1;durP1;ratioP1;P2;durP2;ratioP2
61356;SDS011;47227;46.752;23.576;2024-01-30T00:00:15;33.50;;;15.00;;
61356;SDS011;47227;46.752;23.576;2024-01-30T00:03:04;35.90;;;15.90;;
61356;SDS011;47227;46.752;23.576;2024-01-30T00:05:32;35.50;;;14.90;;
61356;SDS011;47227;46.752;23.576;2024-01-30T00:08:01;33.60;;;15.10;;
61356;SDS011;47227;46.752;23.576;2024-01-30T00:10:29;26.10;;;13.90;;
61356;SDS011;47227;46.752;23.576;2024-01-30T00:12:58;30.10;;;14.10;;
61356;SDS011;47227;46.752;23.576;2024-01-30T00:15:27;32.80;;;15.50;;
61356;SDS011;47227;46.752;23.576;2024-01-30T00:17:55;25.90;;;12.60;;
61356;SDS011;47227;46.752;23.576;2024-01-30T00:20:25;28.00;;;12.10;;
61356;SDS011;47227;46.752;23.576;2024-01-30T00:22:53;23.30;;;11.80;;
61356;SDS011;47227;46.752;23.576;2024-01-30T00:25:22;20.80;;;10.40;;
61356;SDS011;47227;46.752;23.576;2024-01-30T00:27:50;18.50;;;9.00;;
61356;SDS011;47227;46.752;23.576;2024-01-30T00:30:20;20.00;;;9.80;;
61356;SDS011;47227;46.752;23.576;2024-01-30T00:32:48;22.30;;;10.50;;
61356;SDS011;47227;46.752;23.576;2024-01-30T00:35:17;16.40;;;8.90;;
61356;SDS011;47227;46.752;23.576;2024-01-30T00:37:45;17.60;;;8.40;;
61356;SDS011;47227;46.752;23.576;2024-01-30T00:40:14;17.40;;;8.90;;
61356;SDS011;47227;46.752;23.576;2024-01-30T00:42:44;17.40;;;8.70;;
61356;SDS011;47227;46.752;23.576;2024-01-30T00:45:16;18.00;;;8.10;;
61356;SDS011;47227;46.752;23.576;2024-01-30T00:47:45;14.80;;;7.10;;
61356;SDS011;47227;46.752;23.576;2024-01-30T00:50:14;15.30;;;7.50;;
61356;SDS011;47227;46.752;23.576;2024-01-30T00:52:42;15.60;;;7.80;;
61356;SDS011;47227;46.752;23.576;2024-01-30T00:55:13;12.70;;;6.70;;
61356;SDS011;47227;46.752;23.576;2024-01-30T00:57:42;14.60;;;7.30;;
61356;SDS011;47227;46.752;23.576;2024-01-30T01:00:13;13.20;;;6.60;;
61356;SDS011;47227;46.752;23.576;2024-01-30T01:02:45;13.40;;;7.00;;
61356;SDS011;47227;46.752;23.576;2024-01-30T01:05:14;15.60;;;7.20;;
61356;SDS011;47227;46.752;23.576;2024-01-30T01:07:42;16.70;;;7.90;;
61356;SDS011;47227;46.752;23.576;2024-01-30T01:10:11;14.10;;;6.80;;
61356;SDS011;47227;46.752;23.576;2024-01-30T01:12:41;15.50;;;7.40;;
61356;SDS011;47227;46.752;23.576;2024-01-30T01:15:10;18.50;;;9.20;;
61356;SDS011;47227;46.752;23.576;2024-01-30T01:17:39;25.50;;;8.70;;
61356;SDS011;47227;46.752;23.576;2024-01-30T01:20:08;18.80;;;9.80;;
61356;SDS011;47227;46.752;23.576;2024-01-30T01:22:38;21.70;;;10.10;;
61356;SDS011;47227;46.752;23.576;2024-01-30T01:25:07;19.80;;;10.10;;
61356;SDS011;47227;46.752;23.576;2024-01-30T01:27:36;19.80;;;10.50;;
61356;SDS011;47227;46.752;23.576;2024-01-30T01:30:09;16.70;;;9.20;;
61356;SDS011;47227;46.752;23.576;2024-01-30T01:32:39;16.10;;;7.60;;
61356;SDS011;47227;46.752;23.576;2024-01-30T01:35:13;14.90;;;7.50;;
61356;SDS011;47227;46.752;23.576;2024-01-30T01:37:41;13.20;;;6.20;;
61356;SDS011;47227;46.752;23.576;2024-01-30T01:40:10;20.00;;;7.80;;
61356;SDS011;47227;46.752;23.576;2024-01-30T01:42:39;18.00;;;8.20;;
61356;SDS011;47227;46.752;23.576;2024-01-30T01:45:07;15.20;;;7.10;;
61356;SDS011;47227;46.752;23.576;2024-01-30T01:47:36;17.40;;;8.10;;
61356;SDS011;47227;46.752;23.576;2024-01-30T01:50:05;17.70;;;8.50;;
61356;SDS011;47227;46.752;23.576;2024-01-30T01:52:34;17.40;;;8.50;;
61356;SDS011;47227;46.752;23.576;2024-01-30T01:55:03;21.30;;;8.70;;
61356;SDS011;47227;46.752;23.576;2024-01-30T01:57:33;17.30;;;8.70;;
61356;SDS011;47227;46.752;23.576;2024-01-30T02:00:02;14.80;;;7.70;;
61356;SDS011;47227;46.752;23.576;2024-01-30T02:02:36;16.50;;;7.60;;
61356;SDS011;47227;46.752;23.576;2024-01-30T02:05:05;15.10;;;6.70;;
61356;SDS011;47227;46.752;23.576;2024-01-30T02:07:34;10.80;;;5.50;;
61356;SDS011;47227;46.752;23.576;2024-01-30T02:10:03;9.90;;;6.00;;
61356;SDS011;47227;46.752;23.576;2024-01-30T02:12:32;9.60;;;6.10;;
61356;SDS011;47227;46.752;23.576;2024-01-30T02:15:00;10.70;;;5.60;;
61356;SDS011;47227;46.752;23.576;2024-01-30T02:17:29;12.00;;;6.00;;
61356;SDS011;47227;46.752;23.576;2024-01-30T02:19:57;10.30;;;5.90;;
61356;SDS011;47227;46.752;23.576;2024-01-30T02:22:26;10.10;;;5.40;;
61356;SDS011;47227;46.752;23.576;2024-01-30T02:24:56;12.80;;;6.30;;
61356;SDS011;47227;46.752;23.576;2024-01-30T02:27:24;10.70;;;6.10;;
61356;SDS011;47227;46.752;23.576;2024-01-30T02:29:52;11.10;;;6.40;;
61356;SDS011;47227;46.752;23.576;2024-01-30T02:32:23;12.10;;;6.70;;
61356;SDS011;47227;46.752;23.576;2024-01-30T02:34:52;12.80;;;6.50;;
61356;SDS011;47227;46.752;23.576;2024-01-30T02:37:20;10.50;;;6.50;;
61356;SDS011;47227;46.752;23.576;2024-01-30T02:39:49;11.30;;;6.80;;
61356;SDS011;47227;46.752;23.576;2024-01-30T02:42:18;17.40;;;10.10;;
61356;SDS011;47227;46.752;23.576;2024-01-30T02:44:46;16.80;;;9.30;;
61356;SDS011;47227;46.752;23.576;2024-01-30T02:47:15;19.70;;;9.20;;
61356;SDS011;47227;46.752;23.576;2024-01-30T02:49:43;18.90;;;9.80;;
61356;SDS011;47227;46.752;23.576;2024-01-30T02:52:12;19.50;;;10.20;;
61356;SDS011;47227;46.752;23.576;2024-01-30T02:54:40;15.80;;;7.80;;
61356;SDS011;47227;46.752;23.576;2024-01-30T02:57:09;14.20;;;7.30;;
61356;SDS011;47227;46.752;23.576;2024-01-30T02:59:37;12.70;;;6.80;;
61356;SDS011;47227;46.752;23.576;2024-01-30T03:02:06;15.10;;;7.20;;
61356;SDS011;47227;46.752;23.576;2024-01-30T03:04:34;15.50;;;7.50;;
61356;SDS011;47227;46.752;23.576;2024-01-30T03:07:03;14.60;;;7.40;;
61356;SDS011;47227;46.752;23.576;2024-01-30T03:09:32;15.10;;;7.30;;
61356;SDS011;47227;46.752;23.576;2024-01-30T03:12:01;13.80;;;7.70;;
61356;SDS011;47227;46.752;23.576;2024-01-30T03:14:30;13.10;;;7.20;;
61356;SDS011;47227;46.752;23.576;2024-01-30T03:16:59;18.60;;;7.90;;
61356;SDS011;47227;46.752;23.576;2024-01-30T03:19:28;15.80;;;8.70;;
61356;SDS011;47227;46.752;23.576;2024-01-30T03:21:56;17.50;;;9.00;;
61356;SDS011;47227;46.752;23.576;2024-01-30T03:24:25;21.40;;;10.10;;
61356;SDS011;47227;46.752;23.576;2024-01-30T03:26:57;17.90;;;9.80;;
61356;SDS011;47227;46.752;23.576;2024-01-30T03:29:25;16.70;;;8.60;;
61356;SDS011;47227;46.752;23.576;2024-01-30T03:31:54;13.40;;;6.50;;
61356;SDS011;47227;46.752;23.576;2024-01-30T03:34:22;11.90;;;5.90;;
61356;SDS011;47227;46.752;23.576;2024-01-30T03:36:51;11.30;;;5.60;;
61356;SDS011;47227;46.752;23.576;2024-01-30T03:39:19;9.30;;;5.50;;
61356;SDS011;47227;46.752;23.576;2024-01-30T03:41:48;10.30;;;5.20;;
61356;SDS011;47227;46.752;23.576;2024-01-30T03:44:16;15.90;;;6.90;;
61356;SDS011;47227;46.752;23.576;2024-01-30T03:46:45;18.60;;;8.60;;
61356;SDS011;47227;46.752;23.576;2024-01-30T03:49:14;19.40;;;9.60;;
61356;SDS011;47227;46.752;23.576;2024-01-30T03:51:42;18.40;;;8.50;;
61356;SDS011;47227;46.752;23.576;2024-01-30T03:54:11;17.80;;;7.60;;
61356;SDS011;47227;46.752;23.576;2024-01-30T03:56:40;16.50;;;7.70;;
61356;SDS011;47227;46.752;23.576;2024-01-30T03:59:08;14.30;;;6.90;;
61356;SDS011;47227;46.752;23.576;2024-01-30T04:01:37;16.40;;;6.60;;
61356;SDS011;47227;46.752;23.576;2024-01-30T04:04:05;16.10;;;8.00;;
61356;SDS011;47227;46.752;23.576;2024-01-30T04:06:34;22.30;;;10.90;;
61356;SDS011;47227;46.752;23.576;2024-01-30T04:09:03;22.10;;;10.30;;
61356;SDS011;47227;46.752;23.576;2024-01-30T04:11:31;21.50;;;9.90;;
61356;SDS011;47227;46.752;23.576;2024-01-30T04:14:00;23.20;;;11.00;;
61356;SDS011;47227;46.752;23.576;2024-01-30T04:16:28;22.00;;;10.20;;
61356;SDS011;47227;46.752;23.576;2024-01-30T04:18:57;21.20;;;10.60;;
61356;SDS011;47227;46.752;23.576;2024-01-30T04:21:26;21.70;;;10.50;;
61356;SDS011;47227;46.752;23.576;2024-01-30T04:23:55;26.00;;;12.30;;
61356;SDS011;47227;46.752;23.576;2024-01-30T04:26:24;27.90;;;11.40;;
61356;SDS011;47227;46.752;23.576;2024-01-30T04:28:53;27.90;;;11.80;;
61356;SDS011;47227;46.752;23.576;2024-01-30T04:31:21;22.20;;;10.50;;
61356;SDS011;47227;46.752;23.576;2024-01-30T04:33:50;18.10;;;7.80;;
61356;SDS011;47227;46.752;23.576;2024-01-30T04:36:19;12.80;;;7.10;;
61356;SDS011;47227;46.752;23.576;2024-01-30T04:38:47;15.50;;;7.40;;
61356;SDS011;47227;46.752;23.576;2024-01-30T04:41:15;11.40;;;7.10;;
61356;SDS011;47227;46.752;23.576;2024-01-30T04:43:44;19.00;;;6.50;;
61356;SDS011;47227;46.752;23.576;2024-01-30T04:46:12;11.30;;;6.10;;
61356;SDS011;47227;46.752;23.576;2024-01-30T04:48:41;11.20;;;6.20;;
61356;SDS011;47227;46.752;23.576;2024-01-30T04:51:10;9.00;;;4.50;;
61356;SDS011;47227;46.752;23.576;2024-01-30T04:53:38;13.10;;;5.80;;
61356;SDS011;47227;46.752;23.576;2024-01-30T04:56:08;9.30;;;4.80;;
61356;SDS011;47227;46.752;23.576;2024-01-30T04:58:36;11.70;;;6.00;;
61356;SDS011;47227;46.752;23.576;2024-01-30T05:01:05;11.90;;;6.70;;
61356;SDS011;47227;46.752;23.576;2024-01-30T05:03:34;12.20;;;6.00;;
61356;SDS011;47227;46.752;23.576;2024-01-30T05:06:03;16.80;;;6.40;;
61356;SDS011;47227;46.752;23.576;2024-01-30T05:08:32;15.40;;;6.80;;
61356;SDS011;47227;46.752;23.576;2024-01-30T05:11:00;19.50;;;8.70;;
61356;SDS011;47227;46.752;23.576;2024-01-30T05:13:30;22.70;;;9.40;;
61356;SDS011;47227;46.752;23.576;2024-01-30T05:15:59;34.90;;;13.10;;
61356;SDS011;47227;46.752;23.576;2024-01-30T05:18:29;27.60;;;11.40;;
61356;SDS011;47227;46.752;23.576;2024-01-30T05:20:58;17.80;;;8.70;;
61356;SDS011;47227;46.752;23.576;2024-01-30T05:23:26;15.10;;;6.80;;
61356;SDS011;47227;46.752;23.576;2024-01-30T05:25:55;14.30;;;6.70;;
61356;SDS011;47227;46.752;23.576;2024-01-30T05:28:25;14.90;;;7.00;;
61356;SDS011;47227;46.752;23.576;2024-01-30T05:30:54;9.90;;;5.70;;
61356;SDS011;47227;46.752;23.576;2024-01-30T05:33:22;12.20;;;5.70;;
61356;SDS011;47227;46.752;23.576;2024-01-30T05:35:51;15.60;;;7.80;;
61356;SDS011;47227;46.752;23.576;2024-01-30T05:38:22;9.20;;;4.90;;
61356;SDS011;47227;46.752;23.576;2024-01-30T05:40:51;7.50;;;4.70;;
61356;SDS011;47227;46.752;23.576;2024-01-30T05:43:19;15.30;;;7.20;;
61356;SDS011;47227;46.752;23.576;2024-01-30T05:45:49;12.50;;;6.40;;
61356;SDS011;47227;46.752;23.576;2024-01-30T05:48:18;16.70;;;8.00;;
61356;SDS011;47227;46.752;23.576;2024-01-30T05:50:46;29.90;;;13.60;;
61356;SDS011;47227;46.752;23.576;2024-01-30T05:53:15;17.40;;;9.30;;
61356;SDS011;47227;46.752;23.576;2024-01-30T05:55:44;19.80;;;9.10;;
61356;SDS011;47227;46.752;23.576;2024-01-30T05:58:12;15.70;;;8.70;;
61356;SDS011;47227;46.752;23.576;2024-01-30T06:00:41;20.20;;;9.00;;
61356;SDS011;47227;46.752;23.576;2024-01-30T06:03:09;29.70;;;10.10;;
61356;SDS011;47227;46.752;23.576;2024-01-30T06:05:38;22.40;;;8.80;;
61356;SDS011;47227;46.752;23.576;2024-01-30T06:08:06;21.00;;;9.00;;
61356;SDS011;47227;46.752;23.576;2024-01-30T06:10:35;20.40;;;9.40;;
61356;SDS011;47227;46.752;23.576;2024-01-30T06:13:03;18.80;;;8.50;;
61356;SDS011;47227;46.752;23.576;2024-01-30T06:15:32;21.30;;;9.60;;
61356;SDS011;47227;46.752;23.576;2024-01-30T06:18:00;19.40;;;9.40;;
61356;SDS011;47227;46.752;23.576;2024-01-30T06:20:29;24.00;;;10.40;;
61356;SDS011;47227;46.752;23.576;2024-01-30T06:22:58;29.60;;;12.80;;
61356;SDS011;47227;46.752;23.576;2024-01-30T06:25:26;27.60;;;11.20;;
61356;SDS011;47227;46.752;23.576;2024-01-30T06:27:55;25.80;;;11.20;;
61356;SDS011;47227;46.752;23.576;2024-01-30T06:30:24;29.30;;;12.80;;
61356;SDS011;47227;46.752;23.576;2024-01-30T06:32:52;36.90;;;13.90;;
61356;SDS011;47227;46.752;23.576;2024-01-30T06:35:21;26.30;;;13.10;;
61356;SDS011;47227;46.752;23.576;2024-01-30T06:37:50;22.90;;;10.70;;
61356;SDS011;47227;46.752;23.576;2024-01-30T06:40:18;12.90;;;6.40;;
61356;SDS011;47227;46.752;23.576;2024-01-30T06:42:47;17.00;;;6.80;;
61356;SDS011;47227;46.752;23.576;2024-01-30T06:45:15;12.60;;;5.80;;
61356;SDS011;47227;46.752;23.576;2024-01-30T06:47:44;11.20;;;5.90;;
61356;SDS011;47227;46.752;23.576;2024-01-30T06:50:13;16.20;;;6.10;;
61356;SDS011;47227;46.752;23.576;2024-01-30T06:52:42;9.50;;;5.90;;
61356;SDS011;47227;46.752;23.576;2024-01-30T06:55:11;15.60;;;6.00;;
61356;SDS011;47227;46.752;23.576;2024-01-30T06:57:39;14.30;;;5.60;;
61356;SDS011;47227;46.752;23.576;2024-01-30T07:00:08;14.10;;;5.90;;
61356;SDS011;47227;46.752;23.576;2024-01-30T07:02:37;16.10;;;7.60;;
61356;SDS011;47227;46.752;23.576;2024-01-30T07:05:06;39.30;;;17.50;;
61356;SDS011;47227;46.752;23.576;2024-01-30T07:07:35;17.30;;;9.00;;
61356;SDS011;47227;46.752;23.576;2024-01-30T07:10:03;20.70;;;9.60;;
61356;SDS011;47227;46.752;23.576;2024-01-30T07:12:33;21.90;;;8.60;;
61356;SDS011;47227;46.752;23.576;2024-01-30T07:15:01;15.80;;;8.30;;
61356;SDS011;47227;46.752;23.576;2024-01-30T07:17:31;20.60;;;9.50;;
61356;SDS011;47227;46.752;23.576;2024-01-30T07:19:59;15.00;;;8.60;;
61356;SDS011;47227;46.752;23.576;2024-01-30T07:22:29;17.30;;;7.80;;
61356;SDS011;47227;46.752;23.576;2024-01-30T07:24:58;11.30;;;6.30;;
61356;SDS011;47227;46.752;23.576;2024-01-30T07:27:27;11.30;;;5.70;;
61356;SDS011;47227;46.752;23.576;2024-01-30T07:29:56;12.60;;;6.50;;
61356;SDS011;47227;46.752;23.576;2024-01-30T07:32:24;11.60;;;6.00;;
61356;SDS011;47227;46.752;23.576;2024-01-30T07:34:53;18.80;;;6.10;;
61356;SDS011;47227;46.752;23.576;2024-01-30T07:37:35;15.60;;;7.00;;
61356;SDS011;47227;46.752;23.576;2024-01-30T07:40:04;22.10;;;9.00;;
61356;SDS011;47227;46.752;23.576;2024-01-30T07:42:33;19.00;;;8.40;;
61356;SDS011;47227;46.752;23.576;2024-01-30T07:45:01;18.80;;;8.40;;
61356;SDS011;47227;46.752;23.576;2024-01-30T07:47:30;16.30;;;7.90;;
61356;SDS011;47227;46.752;23.576;2024-01-30T07:49:59;13.60;;;7.20;;
61356;SDS011;47227;46.752;23.576;2024-01-30T07:52:28;18.60;;;8.90;;
61356;SDS011;47227;46.752;23.576;2024-01-30T07:54:57;17.00;;;9.00;;
61356;SDS011;47227;46.752;23.576;2024-01-30T07:57:26;12.30;;;6.90;;
61356;SDS011;47227;46.752;23.576;2024-01-30T07:59:54;12.70;;;6.40;;
61356;SDS011;47227;46.752;23.576;2024-01-30T08:02:23;14.60;;;7.40;;
61356;SDS011;47227;46.752;23.576;2024-01-30T08:04:51;19.10;;;8.30;;
61356;SDS011;47227;46.752;23.576;2024-01-30T08:07:20;12.00;;;7.20;;
61356;SDS011;47227;46.752;23.576;2024-01-30T08:09:53;13.80;;;6.50;;
61356;SDS011;47227;46.752;23.576;2024-01-30T08:12:21;12.40;;;5.60;;
61356;SDS011;47227;46.752;23.576;2024-01-30T08:14:50;8.80;;;5.20;;
61356;SDS011;47227;46.752;23.576;2024-01-30T08:17:18;12.40;;;6.50;;
61356;SDS011;47227;46.752;23.576;2024-01-30T08:19:47;16.90;;;6.60;;
61356;SDS011;47227;46.752;23.576;2024-01-30T08:22:15;12.40;;;6.80;;
61356;SDS011;47227;46.752;23.576;2024-01-30T08:24:44;19.40;;;6.90;;
61356;SDS011;47227;46.752;23.576;2024-01-30T08:27:13;12.00;;;6.20;;
61356;SDS011;47227;46.752;23.576;2024-01-30T08:29:42;14.40;;;6.60;;
61356;SDS011;47227;46.752;23.576;2024-01-30T08:32:10;15.60;;;6.10;;
61356;SDS011;47227;46.752;23.576;2024-01-30T08:34:39;13.70;;;6.50;;
61356;SDS011;47227;46.752;23.576;2024-01-30T08:37:07;15.20;;;6.50;;
61356;SDS011;47227;46.752;23.576;2024-01-30T08:39:37;10.90;;;5.70;;
61356;SDS011;47227;46.752;23.576;2024-01-30T08:42:06;9.90;;;6.00;;
61356;SDS011;47227;46.752;23.576;2024-01-30T08:44:36;11.70;;;5.00;;
61356;SDS011;47227;46.752;23.576;2024-01-30T08:47:04;12.70;;;5.50;;
61356;SDS011;47227;46.752;23.576;2024-01-30T08:49:34;13.40;;;6.20;;
61356;SDS011;47227;46.752;23.576;2024-01-30T08:52:03;14.10;;;6.10;;
61356;SDS011;47227;46.752;23.576;2024-01-30T08:54:32;17.90;;;5.90;;
61356;SDS011;47227;46.752;23.576;2024-01-30T08:57:02;12.00;;;5.90;;
61356;SDS011;47227;46.752;23.576;2024-01-30T08:59:32;13.70;;;6.20;;
61356;SDS011;47227;46.752;23.576;2024-01-30T09:02:01;13.20;;;6.00;;
61356;SDS011;47227;46.752;23.576;2024-01-30T09:04:42;14.70;;;6.90;;
61356;SDS011;47227;46.752;23.576;2024-01-30T09:07:10;10.20;;;5.90;;
61356;SDS011;47227;46.752;23.576;2024-01-30T09:09:41;17.80;;;6.90;;
61356;SDS011;47227;46.752;23.576;2024-01-30T09:12:10;15.20;;;7.00;;
61356;SDS011;47227;46.752;23.576;2024-01-30T09:14:40;12.20;;;6.90;;
61356;SDS011;47227;46.752;23.576;2024-01-30T09:17:09;10.60;;;6.20;;
61356;SDS011;47227;46.752;23.576;2024-01-30T09:19:38;12.30;;;6.00;;
61356;SDS011;47227;46.752;23.576;2024-01-30T09:22:07;14.80;;;6.00;;
61356;SDS011;47227;46.752;23.576;2024-01-30T09:24:36;15.10;;;5.90;;
61356;SDS011;47227;46.752;23.576;2024-01-30T09:27:04;14.60;;;6.70;;
61356;SDS011;47227;46.752;23.576;2024-01-30T09:29:33;14.50;;;6.90;;
61356;SDS011;47227;46.752;23.576;2024-01-30T09:32:05;15.90;;;8.20;;
61356;SDS011;47227;46.752;23.576;2024-01-30T09:34:34;16.90;;;7.80;;
61356;SDS011;47227;46.752;23.576;2024-01-30T09:37:04;19.30;;;8.30;;
61356;SDS011;47227;46.752;23.576;2024-01-30T09:39:33;19.00;;;8.00;;
61356;SDS011;47227;46.752;23.576;2024-01-30T09:42:05;25.10;;;9.80;;
61356;SDS011;47227;46.752;23.576;2024-01-30T09:44:46;21.80;;;8.60;;
61356;SDS011;47227;46.752;23.576;2024-01-30T09:47:16;20.60;;;10.30;;
61356;SDS011;47227;46.752;23.576;2024-01-30T09:49:45;20.80;;;8.80;;
61356;SDS011;47227;46.752;23.576;2024-01-30T09:52:16;20.50;;;11.50;;
61356;SDS011;47227;46.752;23.576;2024-01-30T09:54:46;39.10;;;17.10;;
61356;SDS011;47227;46.752;23.576;2024-01-30T09:57:18;20.90;;;10.50;;
61356;SDS011;47227;46.752;23.576;2024-01-30T09:59:46;16.40;;;9.90;;
61356;SDS011;47227;46.752;23.576;2024-01-30T10:02:15;21.50;;;10.70;;
61356;SDS011;47227;46.752;23.576;2024-01-30T10:04:44;22.80;;;10.40;;
61356;SDS011;47227;46.752;23.576;2024-01-30T10:07:13;22.30;;;10.30;;
61356;SDS011;47227;46.752;23.576;2024-01-30T10:09:43;18.10;;;10.60;;
61356;SDS011;47227;46.752;23.576;2024-01-30T10:12:12;19.40;;;11.00;;
61356;SDS011;47227;46.752;23.576;2024-01-30T10:14:41;15.60;;;10.40;;
61356;SDS011;47227;46.752;23.576;2024-01-30T10:17:12;19.50;;;10.70;;
61356;SDS011;47227;46.752;23.576;2024-01-30T10:19:54;16.30;;;10.00;;
61356;SDS011;47227;46.752;23.576;2024-01-30T10:22:23;24.90;;;10.70;;
61356;SDS011;47227;46.752;23.576;2024-01-30T10:24:52;15.40;;;10.10;;
61356;SDS011;47227;46.752;23.576;2024-01-30T10:27:27;16.00;;;10.50;;
61356;SDS011;47227;46.752;23.576;2024-01-30T10:29:57;15.70;;;8.80;;
61356;SDS011;47227;46.752;23.576;2024-01-30T10:32:26;13.40;;;9.40;;
61356;SDS011;47227;46.752;23.576;2024-01-30T10:34:55;14.30;;;10.20;;
61356;SDS011;47227;46.752;23.576;2024-01-30T10:37:25;17.20;;;9.60;;
61356;SDS011;47227;46.752;23.576;2024-01-30T10:39:54;20.20;;;11.60;;
61356;SDS011;47227;46.752;23.576;2024-01-30T10:42:30;13.70;;;8.30;;
61356;SDS011;47227;46.752;23.576;2024-01-30T10:45:02;16.30;;;8.90;;
61356;SDS011;47227;46.752;23.576;2024-01-30T10:47:39;11.10;;;7.30;;
61356;SDS011;47227;46.752;23.576;2024-01-30T10:50:09;12.30;;;8.50;;
61356;SDS011;47227;46.752;23.576;2024-01-30T10:52:42;11.10;;;8.20;;
61356;SDS011;47227;46.752;23.576;2024-01-30T10:55:12;13.60;;;10.70;;
61356;SDS011;47227;46.752;23.576;2024-01-30T10:57:42;11.30;;;8.90;;
61356;SDS011;47227;46.752;23.576;2024-01-30T11:00:11;14.20;;;8.80;;
61356;SDS011;47227;46.752;23.576;2024-01-30T11:02:45;12.00;;;8.50;;
61356;SDS011;47227;46.752;23.576;2024-01-30T11:05:15;15.90;;;9.60;;
61356;SDS011;47227;46.752;23.576;2024-01-30T11:08:09;20.20;;;9.20;;
61356;SDS011;47227;46.752;23.576;2024-01-30T11:10:46;15.70;;;10.00;;
61356;SDS011;47227;46.752;23.576;2024-01-30T11:13:18;15.30;;;9.40;;
61356;SDS011;47227;46.752;23.576;2024-01-30T11:15:47;14.50;;;9.60;;
61356;SDS011;47227;46.752;23.576;2024-01-30T11:18:26;13.70;;;10.20;;
61356;SDS011;47227;46.752;23.576;2024-01-30T11:20:58;13.40;;;9.70;;
61356;SDS011;47227;46.752;23.576;2024-01-30T11:23:30;15.50;;;9.80;;
61356;SDS011;47227;46.752;23.576;2024-01-30T11:26:01;14.80;;;9.60;;
61356;SDS011;47227;46.752;23.576;2024-01-30T11:28:33;13.50;;;10.30;;
61356;SDS011;47227;46.752;23.576;2024-01-30T11:31:04;15.00;;;11.00;;
61356;SDS011;47227;46.752;23.576;2024-01-30T11:33:35;12.90;;;9.80;;
61356;SDS011;47227;46.752;23.576;2024-01-30T11:36:04;16.60;;;10.00;;
61356;SDS011;47227;46.752;23.576;2024-01-30T11:38:35;15.30;;;10.90;;
61356;SDS011;47227;46.752;23.576;2024-01-30T11:41:04;15.30;;;10.50;;
61356;SDS011;47227;46.752;23.576;2024-01-30T11:43:33;16.70;;;11.10;;
61356;SDS011;47227;46.752;23.576;2024-01-30T11:46:05;16.80;;;11.60;;
61356;SDS011;47227;46.752;23.576;2024-01-30T11:48:35;24.30;;;10.20;;
61356;SDS011;47227;46.752;23.576;2024-01-30T11:51:04;14.00;;;11.10;;
61356;SDS011;47227;46.752;23.576;2024-01-30T11:53:33;20.30;;;11.80;;
61356;SDS011;47227;46.752;23.576;2024-01-30T11:56:02;16.80;;;11.50;;
61356;SDS011;47227;46.752;23.576;2024-01-30T11:58:34;15.30;;;11.40;;
61356;SDS011;47227;46.752;23.576;2024-01-30T12:01:03;18.30;;;11.40;;
61356;SDS011;47227;46.752;23.576;2024-01-30T12:03:32;14.00;;;10.30;;
61356;SDS011;47227;46.752;23.576;2024-01-30T12:06:00;15.30;;;10.70;;
61356;SDS011;47227;46.752;23.576;2024-01-30T12:08:31;15.60;;;10.40;;
61356;SDS011;47227;46.752;23.576;2024-01-30T12:11:00;17.30;;;10.20;;
61356;SDS011;47227;46.752;23.576;2024-01-30T12:13:33;17.20;;;10.20;;
61356;SDS011;47227;46.752;23.576;2024-01-30T12:16:03;17.30;;;9.90;;
61356;SDS011;47227;46.752;23.576;2024-01-30T12:18:32;11.80;;;10.00;;
61356;SDS011;47227;46.752;23.576;2024-01-30T12:21:01;11.50;;;9.70;;
61356;SDS011;47227;46.752;23.576;2024-01-30T12:23:30;13.00;;;10.20;;
61356;SDS011;47227;46.752;23.576;2024-01-30T12:25:59;17.30;;;10.10;;
61356;SDS011;47227;46.752;23.576;2024-01-30T12:28:27;13.30;;;10.00;;
61356;SDS011;47227;46.752;23.576;2024-01-30T12:30:56;19.60;;;10.90;;
61356;SDS011;47227;46.752;23.576;2024-01-30T12:33:30;13.90;;;10.30;;
61356;SDS011;47227;46.752;23.576;2024-01-30T12:36:03;16.50;;;10.40;;
61356;SDS011;47227;46.752;23.576;2024-01-30T12:38:33;13.80;;;9.90;;
61356;SDS011;47227;46.752;23.576;2024-01-30T12:41:02;13.10;;;9.90;;
61356;SDS011;47227;46.752;23.576;2024-01-30T12:43:31;19.30;;;11.10;;
61356;SDS011;47227;46.752;23.576;2024-01-30T12:46:06;20.10;;;11.30;;
61356;SDS011;47227;46.752;23.576;2024-01-30T12:48:35;16.20;;;10.90;;
61356;SDS011;47227;46.752;23.576;2024-01-30T12:51:04;19.00;;;10.40;;
61356;SDS011;47227;46.752;23.576;2024-01-30T12:53:33;22.20;;;11.90;;
61356;SDS011;47227;46.752;23.576;2024-01-30T12:56:02;14.80;;;9.90;;
61356;SDS011;47227;46.752;23.576;2024-01-30T12:58:31;13.30;;;9.50;;
61356;SDS011;47227;46.752;23.576;2024-01-30T13:00:59;17.40;;;10.30;;
61356;SDS011;47227;46.752;23.576;2024-01-30T13:03:28;12.90;;;9.80;;
61356;SDS011;47227;46.752;23.576;2024-01-30T13:05:57;17.50;;;11.40;;
61356;SDS011;47227;46.752;23.576;2024-01-30T13:08:26;17.80;;;10.70;;
61356;SDS011;47227;46.752;23.576;2024-01-30T13:10:55;16.60;;;10.50;;
61356;SDS011;47227;46.752;23.576;2024-01-30T13:13:24;17.20;;;11.00;;
61356;SDS011;47227;46.752;23.576;2024-01-30T13:15:52;17.20;;;11.20;;
61356;SDS011;47227;46.752;23.576;2024-01-30T13:18:21;13.50;;;10.80;;
61356;SDS011;47227;46.752;23.576;2024-01-30T13:20:50;13.00;;;10.70;;
61356;SDS011;47227;46.752;23.576;2024-01-30T13:23:18;18.20;;;10.30;;
61356;SDS011;47227;46.752;23.576;2024-01-30T13:25:47;18.10;;;10.90;;
61356;SDS011;47227;46.752;23.576;2024-01-30T13:28:16;16.10;;;11.40;;
61356;SDS011;47227;46.752;23.576;2024-01-30T13:30:44;15.60;;;10.60;;
61356;SDS011;47227;46.752;23.576;2024-01-30T13:33:13;12.60;;;10.60;;
61356;SDS011;47227;46.752;23.576;2024-01-30T13:35:41;15.20;;;10.90;;
61356;SDS011;47227;46.752;23.576;2024-01-30T13:38:13;15.80;;;10.60;;
61356;SDS011;47227;46.752;23.576;2024-01-30T13:40:42;24.80;;;12.10;;
61356;SDS011;47227;46.752;23.576;2024-01-30T13:43:11;17.00;;;9.80;;
61356;SDS011;47227;46.752;23.576;2024-01-30T13:45:40;25.50;;;11.40;;
61356;SDS011;47227;46.752;23.576;2024-01-30T13:48:10;18.80;;;11.60;;
61356;SDS011;47227;46.752;23.576;2024-01-30T13:50:39;16.60;;;12.90;;
61356;SDS011;47227;46.752;23.576;2024-01-30T13:53:08;16.00;;;10.40;;
61356;SDS011;47227;46.752;23.576;2024-01-30T13:55:36;26.60;;;10.60;;
61356;SDS011;47227;46.752;23.576;2024-01-30T13:58:05;17.70;;;11.50;;
61356;SDS011;47227;46.752;23.576;2024-01-30T14:00:35;16.00;;;11.50;;
61356;SDS011;47227;46.752;23.576;2024-01-30T14:03:04;17.60;;;11.80;;
61356;SDS011;47227;46.752;23.576;2024-01-30T14:05:33;18.00;;;10.90;;
61356;SDS011;47227;46.752;23.576;2024-01-30T14:08:02;13.30;;;9.30;;
61356;SDS011;47227;46.752;23.576;2024-01-30T14:10:31;14.30;;;10.50;;
61356;SDS011;47227;46.752;23.576;2024-01-30T14:13:00;17.40;;;10.20;;
61356;SDS011;47227;46.752;23.576;2024-01-30T14:15:28;14.70;;;9.00;;
61356;SDS011;47227;46.752;23.576;2024-01-30T14:17:59;13.80;;;9.90;;
61356;SDS011;47227;46.752;23.576;2024-01-30T14:20:27;13.30;;;9.70;;
61356;SDS011;47227;46.752;23.576;2024-01-30T14:22:56;11.40;;;9.00;;
61356;SDS011;47227;46.752;23.576;2024-01-30T14:25:25;18.20;;;9.80;;
61356;SDS011;47227;46.752;23.576;2024-01-30T14:27:54;14.80;;;10.00;;
61356;SDS011;47227;46.752;23.576;2024-01-30T14:30:23;15.30;;;9.80;;